Time;durP1;ratioP1;P1;durP2;ratioP2;P2;SDS_P1;SDS_P2;PMS_P1;PMS_P2;Temp;Humidity;BMP_temperature;BMP_pressure;BME280_temperature;BME280_humidity;BME280_pressure;Samples;Min_cycle;Max_cycle;Signal;HPM_P1;HPM_P2
2023/01/26 00:02:40;;;;;;;29.65;21.65;;;;;;;2.81;78.17;100876.13;10342463;28;20451;-50
2023/01/26 00:07:44;;;;;;;27.05;20.17;;;;;;;2.77;77.92;100878.00;10345280;28;20045;-50
2023/01/26 00:12:45;;;;;;;29.02;20.60;;;;;;;2.80;77.96;100866.53;10348777;28;20539;-50
2023/01/26 00:17:50;;;;;;;26.35;19.70;;;;;;;2.77;77.88;100851.72;10348090;28;20163;-49
2023/01/26 00:22:51;;;;;;;27.93;19.33;;;;;;;2.70;77.71;100836.22;10345380;28;20061;-51
2023/01/26 00:27:53;;;;;;;27.55;18.88;;;;;;;2.74;78.41;100854.47;10347912;28;20288;-49
2023/01/26 00:32:56;;;;;;;27.50;19.73;;;;;;;2.73;78.51;100855.41;10344449;28;20761;-50
2023/01/26 00:37:57;;;;;;;27.00;19.40;;;;;;;2.77;78.20;100846.44;10346725;28;20161;-50
2023/01/26 00:42:59;;;;;;;25.70;18.13;;;;;;;2.72;78.17;100837.91;10339345;28;20183;-49
2023/01/26 00:48:01;;;;;;;30.25;20.02;;;;;;;2.71;78.24;100845.84;10343112;28;20054;-49
2023/01/26 00:53:02;;;;;;;27.17;18.30;;;;;;;2.75;78.01;100842.19;10345427;28;20227;-50
2023/01/26 00:58:06;;;;;;;28.88;19.35;;;;;;;2.79;77.90;100842.00;10342190;28;20519;-50
2023/01/26 01:03:07;;;;;;;24.98;17.38;;;;;;;2.87;77.29;100841.72;10345483;28;20061;-50
2023/01/26 01:08:09;;;;;;;21.98;14.63;;;;;;;2.78;77.15;100837.66;10346692;28;20053;-50
2023/01/26 01:13:10;;;;;;;19.77;14.88;;;;;;;2.68;77.32;100848.59;10346365;28;20496;-50
2023/01/26 01:18:12;;;;;;;24.58;16.17;;;;;;;2.67;77.38;100850.34;10344528;28;20145;-50
2023/01/26 01:23:13;;;;;;;19.90;13.73;;;;;;;2.65;77.48;100850.41;10343154;28;20058;-50
2023/01/26 01:28:14;;;;;;;21.27;14.73;;;;;;;2.69;77.50;100838.03;10349692;28;20060;-52
2023/01/26 01:33:16;;;;;;;20.98;15.63;;;;;;;2.69;77.27;100852.91;10345699;28;20106;-52
2023/01/26 01:38:17;;;;;;;20.50;13.57;;;;;;;2.65;77.14;100844.31;10341499;28;20130;-51
2023/01/26 01:43:19;;;;;;;20.25;13.70;;;;;;;2.60;77.30;100843.63;10344433;28;20054;-51
2023/01/26 01:48:27;;;;;;;18.05;12.68;;;;;;;2.63;77.08;100846.16;10345556;28;20415;-55
2023/01/26 01:53:33;;;;;;;16.45;11.93;;;;;;;2.64;76.83;100848.72;10339543;28;20053;-49
2023/01/26 01:58:37;;;;;;;13.20;10.10;;;;;;;2.61;76.83;100837.44;10339208;28;20540;-49
2023/01/26 02:03:40;;;;;;;11.20;9.00;;;;;;;2.47;76.41;100830.94;10339736;28;20151;-49
2023/01/26 02:08:53;;;;;;;12.23;9.57;;;;;;;2.52;77.08;100829.91;10342926;28;20045;-49
2023/01/26 02:14:32;;;;;;;10.73;8.88;;;;;;;2.43;76.85;100825.84;10342433;28;20627;-49
2023/01/26 02:19:49;;;;;;;9.68;7.85;;;;;;;2.46;76.69;100821.34;10343871;28;20042;-50
2023/01/26 02:24:53;;;;;;;10.85;8.05;;;;;;;2.41;76.54;100823.28;10341495;28;20055;-50
2023/01/26 02:29:56;;;;;;;10.40;8.00;;;;;;;2.40;76.20;100823.34;10346548;28;20108;-49
2023/01/26 02:35:19;;;;;;;8.77;6.95;;;;;;;2.41;76.01;100815.41;10345403;28;20072;-55
2023/01/26 02:40:20;;;;;;;9.52;7.88;;;;;;;2.39;76.14;100814.59;10341400;28;20064;-53
2023/01/26 02:45:23;;;;;;;9.55;7.57;;;;;;;2.32;76.78;100807.88;10344101;28;20057;-50
2023/01/26 02:50:25;;;;;;;10.55;7.10;;;;;;;2.26;76.68;100794.97;10345461;28;20683;-49
2023/01/26 02:55:29;;;;;;;7.38;5.93;;;;;;;2.38;76.39;100786.59;10334563;28;20058;-50
2023/01/26 03:00:35;;;;;;;7.10;5.72;;;;;;;2.30;75.14;100773.75;10341302;28;20045;-50
2023/01/26 03:05:37;;;;;;;7.15;5.55;;;;;;;2.33;75.15;100778.06;10347181;28;20733;-50
2023/01/26 03:10:39;;;;;;;6.85;5.68;;;;;;;2.35;75.49;100765.72;10341553;28;20149;-49
2023/01/26 03:15:51;;;;;;;7.72;6.28;;;;;;;2.34;76.13;100760.50;10339393;28;20049;-50
2023/01/26 03:31:33;;;;;;;8.13;6.68;;;;;;;2.37;75.81;100761.28;10340491;28;20056;-49
2023/01/26 03:36:36;;;;;;;6.47;5.50;;;;;;;2.21;75.63;100758.34;10346729;28;20049;-51
2023/01/26 03:57:38;;;;;;;5.57;4.80;;;;;;;2.17;74.73;100745.41;10339870;28;20125;-50
2023/01/26 04:24:14;;;;;;;4.60;3.60;;;;;;;2.17;74.06;100722.59;10349628;28;20132;-49
2023/01/26 04:29:17;;;;;;;3.50;2.83;;;;;;;2.16;73.39;100717.41;10349973;28;20136;-49
2023/01/26 04:34:19;;;;;;;5.00;3.97;;;;;;;2.22;72.87;100715.41;10344011;28;20471;-50
2023/01/26 04:39:20;;;;;;;4.28;3.65;;;;;;;2.13;72.53;100713.13;10349597;28;20068;-49
2023/01/26 04:44:21;;;;;;;4.13;3.70;;;;;;;2.20;72.71;100713.75;10353480;28;20604;-51
2023/01/26 04:49:23;;;;;;;5.13;4.35;;;;;;;2.30;73.23;100717.75;10347408;28;20199;-50
2023/01/26 04:54:25;;;;;;;6.00;4.93;;;;;;;2.22;73.03;100712.78;10348813;28;20057;-50
2023/01/26 04:59:26;;;;;;;5.75;4.50;;;;;;;2.15;72.74;100703.44;10347406;28;20061;-50
2023/01/26 05:04:28;;;;;;;5.32;4.78;;;;;;;2.10;72.95;100698.34;10346806;28;20050;-49
2023/01/26 05:09:29;;;;;;;5.82;5.03;;;;;;;2.05;73.29;100687.16;10351172;28;20579;-51
2023/01/26 05:14:31;;;;;;;6.45;4.97;;;;;;;2.14;73.45;100698.25;10355397;28;20045;-55
2023/01/26 05:19:32;;;;;;;5.75;4.50;;;;;;;2.12;73.27;100699.16;10346798;28;20092;-51
2023/01/26 05:24:34;;;;;;;5.72;5.03;;;;;;;2.21;73.01;100695.31;10346504;28;20862;-49
2023/01/26 05:29:35;;;;;;;7.60;5.15;;;;;;;2.22;72.00;100693.53;10345746;28;20046;-51
2023/01/26 05:34:37;;;;;;;7.38;5.15;;;;;;;2.17;72.17;100691.09;10343675;28;20207;-49
2023/01/26 05:39:38;;;;;;;6.80;5.20;;;;;;;2.17;72.36;100698.97;10346144;28;20056;-49
2023/01/26 05:44:40;;;;;;;7.30;5.50;;;;;;;2.18;71.88;100702.44;10340484;28;20577;-47
2023/01/26 05:49:42;;;;;;;5.07;4.40;;;;;;;2.16;72.01;100706.91;10345129;28;20057;-48
2023/01/26 05:54:44;;;;;;;6.88;5.25;;;;;;;2.21;71.71;100710.22;10336993;28;20057;-50
2023/01/26 05:59:45;;;;;;;4.90;4.40;;;;;;;2.18;71.91;100724.31;10346859;28;20048;-49
2023/01/26 06:04:47;;;;;;;5.95;4.47;;;;;;;2.16;71.80;100720.03;10340722;28;20057;-49
2023/01/26 06:09:49;;;;;;;6.40;4.60;;;;;;;2.22;71.32;100725.94;10363728;28;20091;-48
2023/01/26 06:14:51;;;;;;;6.43;5.80;;;;;;;2.07;71.76;100716.84;10378206;28;20590;-48
2023/01/26 06:19:52;;;;;;;8.63;6.90;;;;;;;2.14;71.28;100741.09;10369429;28;20060;-49
2023/01/26 06:24:54;;;;;;;8.55;7.28;;;;;;;2.08;71.91;100736.94;10366521;28;20661;-49
2023/01/26 06:29:55;;;;;;;8.02;7.18;;;;;;;2.09;71.42;100738.66;10347725;28;20057;-49
2023/01/26 06:34:57;;;;;;;9.30;8.02;;;;;;;2.08;71.41;100747.44;10347242;28;20054;-48
2023/01/26 06:39:58;;;;;;;9.23;8.32;;;;;;;1.92;71.00;100731.41;10356689;28;20076;-49
2023/01/26 06:45:00;;;;;;;7.85;7.00;;;;;;;2.08;71.07;100746.59;10340072;28;20049;-47
2023/01/26 06:50:01;;;;;;;8.70;6.88;;;;;;;2.03;70.29;100744.13;10345774;28;20046;-47
2023/01/26 06:55:04;;;;;;;8.13;7.30;;;;;;;1.98;70.39;100748.69;10352652;28;20163;-48
2023/01/26 07:00:06;;;;;;;7.20;6.38;;;;;;;1.97;69.67;100733.00;10351590;28;20087;-51
2023/01/26 07:05:08;;;;;;;7.38;6.07;;;;;;;1.97;69.71;100751.38;10349672;28;20571;-49
2023/01/26 07:10:12;;;;;;;6.57;5.88;;;;;;;1.92;68.66;100757.66;10355574;28;20504;-48
2023/01/26 07:15:14;;;;;;;7.15;6.25;;;;;;;1.96;68.45;100766.28;10346954;28;20060;-47
2023/01/26 07:20:15;;;;;;;7.03;5.78;;;;;;;1.93;68.29;100775.13;10335255;28;20069;-49
2023/01/26 07:25:18;;;;;;;6.03;5.38;;;;;;;1.79;68.20;100755.53;10335425;28;20113;-49
2023/01/26 07:30:19;;;;;;;6.57;5.82;;;;;;;1.89;68.00;100780.53;10352395;28;20088;-48
2023/01/26 07:35:21;;;;;;;5.75;4.63;;;;;;;1.86;66.50;100773.66;10342232;28;20049;-49
2023/01/26 07:40:22;;;;;;;7.10;5.07;;;;;;;1.87;66.81;100780.59;10345475;28;20116;-49
2023/01/26 07:45:24;;;;;;;5.65;4.65;;;;;;;1.84;66.43;100775.44;10344751;28;20917;-48
2023/01/26 07:50:25;;;;;;;6.13;5.30;;;;;;;1.87;66.04;100759.59;10349577;28;20060;-49
2023/01/26 07:55:27;;;;;;;13.52;9.65;;;;;;;1.93;65.00;100779.53;10346228;28;20752;-49
2023/01/26 08:00:29;;;;;;;11.80;7.00;;;;;;;1.89;65.41;100784.03;10353260;28;20038;-47
2023/01/26 08:05:31;;;;;;;7.45;6.57;;;;;;;1.83;65.57;100789.50;10345699;28;20609;-49
2023/01/26 08:10:33;;;;;;;9.00;6.97;;;;;;;1.87;65.95;100790.25;10347440;28;20140;-52
2023/01/26 08:15:34;;;;;;;8.25;7.10;;;;;;;1.90;65.66;100796.22;10344090;28;20053;-49
2023/01/26 08:20:36;;;;;;;7.95;6.63;;;;;;;1.89;66.07;100796.28;10354037;28;20541;-50
2023/01/26 08:25:37;;;;;;;7.35;6.55;;;;;;;1.92;65.48;100804.06;10352104;28;20526;-49
2023/01/26 08:30:38;;;;;;;8.80;6.75;;;;;;;1.82;65.50;100807.91;10347934;28;20052;-49
2023/01/26 08:35:40;;;;;;;9.48;8.52;;;;;;;1.80;64.06;100783.50;10351327;28;20050;-49
2023/01/26 08:40:42;;;;;;;8.85;7.68;;;;;;;1.85;64.45;100803.44;10347101;28;20602;-54
2023/01/26 08:45:46;;;;;;;15.13;11.60;;;;;;;1.88;64.57;100802.47;10342754;28;20052;-50
2023/01/26 08:50:47;;;;;;;8.87;7.73;;;;;;;2.00;64.02;100802.03;10350425;28;20527;-48
2023/01/26 08:55:49;;;;;;;9.27;8.32;;;;;;;2.04;64.79;100798.38;10344574;28;20049;-48
2023/01/26 09:00:50;;;;;;;7.97;7.28;;;;;;;2.01;64.11;100806.38;10347276;28;20054;-48
2023/01/26 09:05:52;;;;;;;7.97;6.68;;;;;;;1.89;64.28;100812.03;10345183;28;20570;-48
2023/01/26 09:10:54;;;;;;;8.32;7.53;;;;;;;2.07;65.66;100819.28;10352764;28;20469;-51
2023/01/26 09:15:56;;;;;;;7.85;7.05;;;;;;;2.19;64.27;100810.09;10347061;28;20057;-49
2023/01/26 09:21:05;;;;;;;9.07;7.03;;;;;;;1.83;64.99;100801.75;10342521;28;20743;-48
2023/01/26 09:26:07;;;;;;;10.50;7.72;;;;;;;1.59;66.16;100813.06;10346888;28;20084;-48
2023/01/26 09:31:10;;;;;;;9.40;8.15;;;;;;;1.73;65.94;100815.22;10342858;28;20076;-48
2023/01/26 09:36:12;;;;;;;8.45;7.38;;;;;;;1.83;65.89;100831.53;10348617;28;20151;-48
2023/01/26 09:41:20;;;;;;;9.07;7.30;;;;;;;1.86;65.43;100825.28;10347865;28;20081;-47
2023/01/26 09:46:41;;;;;;;9.18;7.82;;;;;;;1.94;65.08;100812.75;10342845;28;20068;-49
2023/01/26 09:51:52;;;;;;;8.82;7.22;;;;;;;1.86;65.47;100817.41;10344731;28;20049;-49
2023/01/26 09:56:54;;;;;;;9.63;7.40;;;;;;;1.80;64.47;100815.00;10349969;28;20572;-50
2023/01/26 10:02:00;;;;;;;8.80;7.88;;;;;;;1.86;64.33;100820.91;10336463;28;20088;-51
2023/01/26 10:07:08;;;;;;;8.50;7.25;;;;;;;1.90;64.15;100805.88;10341734;28;20054;-48
2023/01/26 10:12:21;;;;;;;8.45;7.45;;;;;;;1.97;63.89;100802.13;10343626;28;20184;-50
2023/01/26 10:17:26;;;;;;;7.72;6.38;;;;;;;1.99;63.15;100800.31;10345223;28;20049;-50
2023/01/26 10:22:34;;;;;;;6.95;6.18;;;;;;;2.08;63.54;100802.59;10347522;28;20255;-49
2023/01/26 10:27:36;;;;;;;8.95;7.78;;;;;;;2.11;64.09;100799.84;10344279;28;20168;-53
2023/01/26 10:32:40;;;;;;;8.15;7.20;;;;;;;2.10;63.49;100787.66;10347238;28;20060;-49
2023/01/26 10:37:41;;;;;;;9.55;7.68;;;;;;;1.98;63.65;100767.06;10345408;28;20136;-50
2023/01/26 10:42:54;;;;;;;9.10;6.72;;;;;;;1.99;64.44;100779.28;10346806;28;20052;-49
2023/01/26 10:48:16;;;;;;;8.02;6.75;;;;;;;1.99;63.93;100774.03;10343630;28;20056;-49
2023/01/26 10:53:29;;;;;;;8.63;6.75;;;;;;;1.90;64.38;100777.00;10347761;28;20132;-49
2023/01/26 10:58:42;;;;;;;9.55;7.95;;;;;;;1.91;64.07;100770.84;10346728;28;20049;-49
2023/01/26 11:04:04;;;;;;;8.30;6.65;;;;;;;1.65;65.11;100771.78;10344034;28;20136;-50
2023/01/26 11:09:17;;;;;;;11.20;7.55;;;;;;;1.72;65.15;100757.53;10347137;28;20057;-50
2023/01/26 11:14:19;;;;;;;10.10;7.70;;;;;;;1.97;64.33;100764.50;10344590;28;20038;-50
2023/01/26 11:19:49;;;;;;;10.40;8.05;;;;;;;1.84;64.37;100758.84;10355595;28;20567;-50
2023/01/26 11:24:57;;;;;;;8.70;6.93;;;;;;;1.92;64.36;100743.66;10351697;28;20045;-49
2023/01/26 11:30:35;;;;;;;8.38;7.18;;;;;;;1.88;64.21;100739.47;10348178;28;20403;-50
2023/01/26 11:35:56;;;;;;;8.40;7.47;;;;;;;1.95;63.62;100735.69;10347894;28;20736;-49
2023/01/26 11:41:17;;;;;;;8.68;6.90;;;;;;;1.90;63.07;100732.38;10348912;28;20045;-49
2023/01/26 11:46:44;;;;;;;8.40;6.72;;;;;;;2.04;62.44;100730.09;10357739;28;20046;-50
2023/01/26 11:52:20;;;;;;;8.88;7.25;;;;;;;2.04;62.25;100722.22;10319295;28;20045;-50
2023/01/26 11:57:40;;;;;;;9.40;7.45;;;;;;;2.04;62.51;100714.34;10352570;28;20652;-50
2023/01/26 12:02:52;;;;;;;8.52;6.88;;;;;;;2.07;61.66;100703.72;10353989;28;20534;-50
2023/01/26 12:08:13;;;;;;;10.18;7.82;;;;;;;1.98;61.75;100706.69;10356491;28;21951;-50
2023/01/26 12:13:33;;;;;;;10.18;8.20;;;;;;;2.28;61.86;100701.16;10352371;28;20050;-50
2023/01/26 12:18:44;;;;;;;11.82;9.73;;;;;;;2.07;61.95;100693.22;10355567;28;20147;-52
2023/01/26 12:24:02;;;;;;;12.48;8.65;;;;;;;2.08;61.64;100686.19;10355627;28;20184;-51
2023/01/26 12:29:26;;;;;;;11.10;8.83;;;;;;;2.08;61.80;100673.91;10351461;28;20049;-51
2023/01/26 12:34:32;;;;;;;10.93;8.43;;;;;;;2.06;62.32;100660.00;10352532;28;20084;-51
2023/01/26 12:39:43;;;;;;;12.90;10.05;;;;;;;2.08;62.23;100655.53;10354163;28;20299;-51
2023/01/26 12:45:00;;;;;;;10.85;8.57;;;;;;;2.20;61.63;100648.09;10355129;28;20495;-49
2023/01/26 12:50:21;;;;;;;9.23;7.47;;;;;;;2.24;61.99;100645.28;10347721;28;21422;-51
2023/01/26 12:55:46;;;;;;;11.45;8.65;;;;;;;2.25;61.89;100644.38;10355572;28;20142;-54
2023/01/26 13:00:57;;;;;;;10.60;7.95;;;;;;;2.24;62.60;100647.91;10354262;28;20045;-49
2023/01/26 13:06:19;;;;;;;12.82;8.75;;;;;;;2.26;62.16;100650.47;10349451;28;20389;-54
2023/01/26 13:11:40;;;;;;;11.75;8.95;;;;;;;2.27;62.67;100652.19;10356130;28;20085;-52
2023/01/26 13:16:42;;;;;;;14.25;9.00;;;;;;;2.14;63.31;100637.81;10354849;28;20057;-51
2023/01/26 13:21:44;;;;;;;12.60;8.50;;;;;;;2.08;64.96;100621.38;10355940;28;21000;-51
2023/01/26 13:26:47;;;;;;;12.45;9.05;;;;;;;2.44;64.44;100644.47;10355854;28;20411;-52
2023/01/26 13:31:56;;;;;;;12.52;9.07;;;;;;;2.41;64.67;100633.25;10355120;28;20052;-50
2023/01/26 13:37:08;;;;;;;13.40;9.25;;;;;;;2.58;64.85;100640.44;10349980;28;20088;-51
2023/01/26 13:42:21;;;;;;;15.20;10.27;;;;;;;2.57;65.49;100644.84;10358060;28;20160;-50
2023/01/26 13:47:28;;;;;;;11.30;8.25;;;;;;;2.52;65.61;100645.94;10347397;28;20072;-49
2023/01/26 13:52:30;;;;;;;12.95;8.93;;;;;;;2.47;65.92;100633.84;10347402;28;20106;-50
2023/01/26 13:57:31;;;;;;;14.68;9.43;;;;;;;2.56;65.87;100637.03;10355881;28;20087;-50
2023/01/26 14:02:35;;;;;;;11.52;8.18;;;;;;;2.59;65.24;100642.16;10347675;28;20245;-50
2023/01/26 14:07:42;;;;;;;15.07;9.95;;;;;;;2.57;65.92;100650.09;10352405;28;20311;-50
2023/01/26 14:12:55;;;;;;;12.00;8.38;;;;;;;2.67;65.79;100653.19;10343645;28;20053;-51
2023/01/26 14:18:00;;;;;;;11.48;8.77;;;;;;;2.58;65.88;100661.44;10340958;28;20127;-51
2023/01/26 14:23:12;;;;;;;12.43;8.48;;;;;;;2.53;66.52;100659.00;10346306;28;21483;-50
2023/01/26 14:28:19;;;;;;;13.35;8.65;;;;;;;2.48;66.87;100667.09;10344517;28;20488;-50
2023/01/26 14:33:23;;;;;;;13.60;8.30;;;;;;;2.47;67.61;100675.03;10345207;28;20275;-51
2023/01/26 14:38:27;;;;;;;12.85;8.45;;;;;;;2.40;68.24;100665.69;10344196;28;20067;-51
2023/01/26 14:43:29;;;;;;;14.68;9.60;;;;;;;2.42;69.23;100683.09;10344162;28;20123;-51
2023/01/26 14:48:36;;;;;;;14.60;8.27;;;;;;;2.32;70.11;100673.03;10341081;28;20135;-51
2023/01/26 14:53:38;;;;;;;13.50;9.02;;;;;;;2.45;70.56;100682.13;10341155;28;20061;-50
2023/01/26 14:58:40;;;;;;;14.82;10.27;;;;;;;2.45;71.33;100680.34;10342583;28;20092;-54
2023/01/26 15:03:41;;;;;;;18.52;11.38;;;;;;;2.49;72.02;100675.81;10343236;28;20053;-50
2023/01/26 15:09:04;;;;;;;16.80;11.23;;;;;;;2.48;73.15;100677.59;10345032;28;20671;-48
2023/01/26 15:14:22;;;;;;;18.20;12.18;;;;;;;2.41;73.15;100665.63;10340649;28;20049;-51
2023/01/26 15:19:26;;;;;;;18.33;12.23;;;;;;;2.44;72.79;100662.88;10345918;28;20146;-51
2023/01/26 15:24:27;;;;;;;15.88;11.02;;;;;;;2.44;72.89;100657.59;10341673;28;20057;-49
2023/01/26 15:29:31;;;;;;;16.27;10.90;;;;;;;2.39;72.88;100667.47;10344103;28;20427;-51
2023/01/26 15:34:37;;;;;;;14.70;10.25;;;;;;;2.37;72.80;100669.31;10343284;28;20063;-51
2023/01/26 15:39:38;;;;;;;12.70;9.55;;;;;;;2.25;72.94;100646.13;10342181;28;20053;-50
2023/01/26 15:44:40;;;;;;;15.95;10.00;;;;;;;2.39;72.65;100659.56;10344738;28;20128;-56
2023/01/26 15:49:42;;;;;;;13.88;10.02;;;;;;;2.41;72.53;100667.41;10346018;28;20129;-51
2023/01/26 15:54:44;;;;;;;15.13;10.02;;;;;;;2.40;72.82;100669.19;10337079;28;20053;-50
2023/01/26 15:59:45;;;;;;;13.85;9.05;;;;;;;2.55;72.99;100656.31;10340121;28;20083;-50
2023/01/26 16:04:47;;;;;;;15.43;10.35;;;;;;;2.51;72.92;100663.50;10343695;28;20585;-50
2023/01/26 16:09:49;;;;;;;16.58;11.13;;;;;;;2.40;73.49;100663.94;10344426;28;20057;-51
2023/01/26 16:14:51;;;;;;;14.13;9.73;;;;;;;2.38;73.69;100671.00;10350374;28;20634;-50
2023/01/26 16:19:53;;;;;;;14.73;11.15;;;;;;;2.38;74.33;100665.75;10343344;28;20056;-50
2023/01/26 16:24:54;;;;;;;15.98;10.57;;;;;;;2.36;74.01;100646.56;10345248;28;20478;-49
2023/01/26 16:29:55;;;;;;;14.43;10.27;;;;;;;2.50;74.36;100663.56;10333000;28;20392;-50
2023/01/26 16:34:57;;;;;;;16.73;11.45;;;;;;;2.58;73.98;100664.09;10343390;28;20614;-50
2023/01/26 16:39:59;;;;;;;15.70;11.15;;;;;;;2.07;74.82;100603.94;10343361;28;20152;-51
2023/01/26 16:45:00;;;;;;;14.52;10.88;;;;;;;2.52;74.82;100652.03;10334250;28;20065;-50
2023/01/26 16:50:02;;;;;;;18.15;11.77;;;;;;;2.48;74.68;100656.56;10336703;28;20080;-50
2023/01/26 16:55:04;;;;;;;17.48;11.55;;;;;;;2.19;75.56;100627.97;10335047;28;20061;-50
2023/01/26 17:00:06;;;;;;;18.05;11.38;;;;;;;2.20;75.80;100634.97;10341981;28;20455;-50
2023/01/26 17:05:16;;;;;;;16.98;11.55;;;;;;;2.30;75.60;100657.31;10340443;28;20076;-54
2023/01/26 17:10:21;;;;;;;17.02;11.63;;;;;;;2.43;75.32;100650.66;10344804;28;20049;-49
2023/01/26 17:15:27;;;;;;;16.33;12.48;;;;;;;2.27;75.18;100620.66;10344607;28;20187;-52
2023/01/26 17:20:28;;;;;;;16.15;10.93;;;;;;;2.54;74.70;100657.22;10339453;28;20052;-51
2023/01/26 17:25:29;;;;;;;15.80;11.52;;;;;;;2.45;75.08;100656.69;10347495;28;20057;-51
2023/01/26 17:30:31;;;;;;;21.80;14.20;;;;;;;2.45;75.26;100663.75;10335950;28;20076;-52
2023/01/26 17:35:32;;;;;;;19.52;12.73;;;;;;;2.52;75.24;100666.97;10332706;28;22032;-56
2023/01/26 17:40:35;;;;;;;16.73;12.10;;;;;;;2.57;75.50;100665.03;10335266;28;20049;-51
2023/01/26 17:45:36;;;;;;;20.08;13.50;;;;;;;2.68;74.87;100673.31;10351552;28;20075;-49
2023/01/26 17:50:38;;;;;;;16.90;12.55;;;;;;;2.39;75.11;100630.69;10343159;28;20053;-50
2023/01/26 17:55:39;;;;;;;17.05;12.50;;;;;;;2.61;75.36;100672.72;10342228;28;20729;-50
2023/01/26 18:00:41;;;;;;;18.80;12.95;;;;;;;2.59;76.25;100676.31;10345000;28;20053;-49
2023/01/26 18:05:53;;;;;;;18.10;12.90;;;;;;;2.58;77.08;100674.59;10348881;28;20589;-50
2023/01/26 18:10:59;;;;;;;22.20;13.57;;;;;;;2.52;76.66;100674.84;10346897;28;20052;-51
2023/01/26 18:16:01;;;;;;;18.92;13.35;;;;;;;2.48;77.00;100685.47;10346738;28;20053;-50
2023/01/26 18:21:16;;;;;;;20.35;12.52;;;;;;;2.52;76.74;100677.47;10343564;28;20527;-50
2023/01/26 18:26:20;;;;;;;19.55;14.40;;;;;;;2.44;77.68;100678.63;10340630;28;20164;-50
2023/01/26 18:31:25;;;;;;;19.23;13.10;;;;;;;2.45;78.53;100677.72;10349641;28;20056;-51
2023/01/26 18:36:27;;;;;;;16.00;11.38;;;;;;;2.48;78.27;100680.22;10348634;28;20045;-50
2023/01/26 18:41:29;;;;;;;22.35;15.35;;;;;;;2.43;78.49;100674.31;10346150;28;20064;-50
2023/01/26 18:46:31;;;;;;;20.98;14.75;;;;;;;2.46;79.04;100682.06;10334054;28;20050;-50
2023/01/26 18:51:34;;;;;;;24.63;16.25;;;;;;;2.41;79.00;100684.00;10344833;28;20056;-50
2023/01/26 18:56:36;;;;;;;20.75;15.32;;;;;;;2.34;79.83;100685.16;10334604;28;20718;-50
2023/01/26 19:01:38;;;;;;;21.35;14.52;;;;;;;2.40;80.12;100678.81;10339624;28;20447;-50
2023/01/26 19:06:39;;;;;;;19.83;14.00;;;;;;;2.43;79.95;100676.94;10340668;28;20041;-50
2023/01/26 19:11:41;;;;;;;17.00;12.35;;;;;;;2.69;78.98;100688.19;10341188;28;20064;-51
2023/01/26 19:16:46;;;;;;;19.52;13.82;;;;;;;2.64;79.17;100676.97;10339316;28;20048;-51
2023/01/26 19:21:48;;;;;;;20.10;14.05;;;;;;;2.62;79.04;100684.91;10340282;28;20061;-51
2023/01/26 19:26:49;;;;;;;19.63;13.48;;;;;;;2.47;79.33;100670.63;10339749;28;20401;-50
2023/01/26 19:31:51;;;;;;;20.85;14.00;;;;;;;2.57;79.77;100675.53;10342226;28;20057;-51
2023/01/26 19:36:53;;;;;;;18.58;13.27;;;;;;;2.71;79.24;100672.34;10343589;28;20135;-52
2023/01/26 19:41:54;;;;;;;21.65;15.85;;;;;;;2.75;79.01;100671.31;10349514;28;20138;-50
2023/01/26 19:46:55;;;;;;;21.48;13.68;;;;;;;2.51;78.75;100636.34;10351269;28;20954;-52
2023/01/26 19:51:57;;;;;;;16.65;12.95;;;;;;;2.85;79.25;100672.59;10348168;28;20057;-51
2023/01/26 19:56:58;;;;;;;17.70;13.32;;;;;;;2.75;79.46;100680.03;10344841;28;20053;-53
2023/01/26 20:02:00;;;;;;;18.77;12.90;;;;;;;2.75;80.02;100679.19;10341588;28;20488;-51
2023/01/26 20:07:04;;;;;;;21.90;13.73;;;;;;;2.69;79.89;100675.03;10346243;28;20057;-51
2023/01/26 20:12:07;;;;;;;17.02;12.88;;;;;;;2.83;79.29;100672.66;10345896;28;20053;-52
2023/01/26 20:17:09;;;;;;;19.15;13.05;;;;;;;2.88;79.16;100664.59;10346561;28;20075;-50
2023/01/26 20:22:11;;;;;;;17.90;12.13;;;;;;;2.83;78.89;100666.56;10345320;28;20347;-52
2023/01/26 20:27:12;;;;;;;19.42;13.65;;;;;;;2.46;79.44;100632.16;10342178;28;20647;-52
2023/01/26 20:32:13;;;;;;;18.23;12.20;;;;;;;2.79;79.59;100665.84;10348661;28;20057;-53
2023/01/26 20:37:15;;;;;;;19.00;12.75;;;;;;;2.82;79.55;100667.47;10344843;28;20068;-51
2023/01/26 20:42:17;;;;;;;19.10;13.85;;;;;;;2.76;80.11;100650.19;10348316;28;20116;-51
2023/01/26 20:47:21;;;;;;;15.18;11.52;;;;;;;2.90;79.98;100654.00;10339552;28;20180;-50
2023/01/26 20:52:23;;;;;;;18.13;11.88;;;;;;;3.13;78.51;100643.34;10343510;28;20057;-51
2023/01/26 20:57:25;;;;;;;18.17;12.20;;;;;;;3.13;78.37;100630.22;10339988;28;20060;-51
2023/01/26 21:02:26;;;;;;;17.38;12.77;;;;;;;3.16;78.72;100645.00;10340753;28;20076;-51
2023/01/26 21:07:28;;;;;;;14.30;10.70;;;;;;;3.03;79.31;100639.41;10339873;28;20131;-52
2023/01/26 21:12:29;;;;;;;16.13;11.63;;;;;;;2.96;79.14;100609.06;10357769;28;20135;-55
2023/01/26 21:17:31;;;;;;;17.73;10.95;;;;;;;3.16;78.62;100630.06;10347522;28;20050;-51
2023/01/26 21:22:32;;;;;;;15.00;10.43;;;;;;;3.22;78.71;100630.75;10350028;28;20187;-50
2023/01/26 21:27:34;;;;;;;16.58;11.32;;;;;;;2.99;79.04;100596.63;10345969;28;20140;-50
2023/01/26 21:32:35;;;;;;;13.43;9.98;;;;;;;3.14;78.91;100621.41;10348941;28;20056;-50
2023/01/26 21:37:36;;;;;;;14.15;10.48;;;;;;;2.91;80.77;100621.53;10346758;28;20080;-50
2023/01/26 21:42:38;;;;;;;14.48;11.43;;;;;;;3.14;79.76;100624.03;10348251;28;20052;-50
2023/01/26 21:47:39;;;;;;;14.85;12.57;;;;;;;3.07;79.59;100613.84;10349078;28;20983;-52
2023/01/26 21:52:56;;;;;;;16.65;11.77;;;;;;;3.03;80.08;100614.91;10347165;28;20050;-50
2023/01/26 22:03:17;;;;;;;16.52;11.35;;;;;;;3.06;80.58;100610.34;10348785;28;20538;-50
2023/01/26 22:08:19;;;;;;;16.20;11.68;;;;;;;3.12;80.17;100618.00;10352089;28;20724;-51
2023/01/26 22:13:20;;;;;;;20.90;15.63;;;;;;;2.89;80.46;100555.03;10339091;28;20049;-50
2023/01/26 22:18:22;;;;;;;15.98;11.65;;;;;;;3.04;80.28;100606.94;10343718;28;20056;-50
2023/01/26 22:23:23;;;;;;;15.65;11.98;;;;;;;3.14;80.39;100608.25;10346593;28;20132;-55
2023/01/26 22:28:25;;;;;;;14.38;10.57;;;;;;;3.20;80.08;100604.50;10346870;28;20196;-53
2023/01/26 22:33:27;;;;;;;16.48;12.27;;;;;;;3.15;80.32;100609.97;10345561;28;20049;-51
2023/01/26 22:38:30;;;;;;;16.25;10.60;;;;;;;3.13;80.68;100617.06;10347622;28;20526;-51
2023/01/26 22:43:32;;;;;;;16.63;11.80;;;;;;;3.13;80.71;100614.41;10344659;28;20137;-50
2023/01/26 22:48:35;;;;;;;13.82;11.13;;;;;;;3.00;81.49;100616.75;10352177;28;20075;-51
2023/01/26 22:53:38;;;;;;;13.88;10.45;;;;;;;3.01;81.25;100617.59;10348127;28;20049;-51
2023/01/26 22:58:39;;;;;;;16.17;10.65;;;;;;;3.01;81.07;100617.59;10348112;28;20102;-50
2023/01/26 23:03:59;;;;;;;15.95;10.70;;;;;;;3.03;81.21;100607.00;10342127;28;20133;-50
2023/01/26 23:09:03;;;;;;;12.32;9.88;;;;;;;2.99;81.20;100601.03;10345569;28;20103;-50
2023/01/26 23:14:04;;;;;;;11.50;8.67;;;;;;;3.00;80.84;100597.47;10345224;28;20144;-50
2023/01/26 23:19:06;;;;;;;14.35;10.75;;;;;;;3.01;80.84;100596.56;10346866;28;20037;-51
2023/01/26 23:24:07;;;;;;;15.20;11.65;;;;;;;2.98;81.13;100596.69;10348437;28;20165;-51
2023/01/26 23:29:09;;;;;;;14.75;9.90;;;;;;;3.04;80.94;100593.78;10345887;28;20051;-50
2023/01/26 23:34:10;;;;;;;16.10;11.43;;;;;;;3.00;81.41;100593.06;10349437;28;20058;-50
2023/01/26 23:39:12;;;;;;;14.88;10.48;;;;;;;2.99;80.93;100594.00;10350337;28;20428;-50
2023/01/26 23:44:13;;;;;;;14.90;11.02;;;;;;;3.01;81.07;100588.66;10345931;28;20571;-50
2023/01/26 23:49:15;;;;;;;14.40;9.75;;;;;;;3.09;80.97;100588.31;10346776;28;20782;-49
2023/01/26 23:54:16;;;;;;;14.80;10.50;;;;;;;3.08;81.16;100586.59;10345450;28;20550;-49
2023/01/26 23:59:18;;;;;;;14.05;10.20;;;;;;;3.12;81.01;100580.28;10349977;28;20056;-52
